Time;durP1;ratioP1;P1;durP2;ratioP2;P2;SDS_P1;SDS_P2;PMS_P1;PMS_P2;Temp;Humidity;BMP_temperature;BMP_pressure;BME280_temperature;BME280_humidity;BME280_pressure;Samples;Min_cycle;Max_cycle;Signal;HPM_P1;HPM_P2
2023/05/16 00:00:18;;;;;;;6.32;1.20;;;;;;;6.83;100.00;101898.50;4975104;28;20058;-80
2023/05/16 00:03:03;;;;;;;5.40;1.00;;;;;;;6.84;100.00;101902.88;4977760;28;20068;-80
2023/05/16 00:05:47;;;;;;;4.03;0.93;;;;;;;6.82;100.00;101899.38;4978234;28;20473;-80
2023/05/16 00:08:32;;;;;;;6.60;1.20;;;;;;;6.82;100.00;101903.78;4980573;28;20049;-80
2023/05/16 00:11:16;;;;;;;4.93;1.50;;;;;;;6.79;100.00;101904.69;4977248;28;20084;-80
2023/05/16 00:14:01;;;;;;;5.30;1.45;;;;;;;6.74;100.00;101903.84;4979217;28;20044;-79
2023/05/16 00:16:49;;;;;;;1.95;1.45;;;;;;;6.72;100.00;101903.91;4978230;28;20049;-81
2023/05/16 00:19:34;;;;;;;3.75;1.23;;;;;;;6.68;100.00;101898.66;4983452;28;20132;-80
2023/05/16 00:22:18;;;;;;;4.32;1.15;;;;;;;6.66;100.00;101894.28;4976738;28;20100;-80
2023/05/16 00:25:03;;;;;;;5.20;1.40;;;;;;;6.65;100.00;101897.81;4979347;28;20397;-80
2023/05/16 00:27:47;;;;;;;3.50;1.30;;;;;;;6.65;100.00;101900.44;4978730;28;20131;-80
2023/05/16 00:30:31;;;;;;;5.93;1.45;;;;;;;6.65;100.00;101908.34;4978919;28;21030;-80
2023/05/16 00:33:15;;;;;;;4.88;1.27;;;;;;;6.64;100.00;101903.09;4977237;28;20061;-79
2023/05/16 00:35:59;;;;;;;4.03;1.10;;;;;;;6.62;100.00;101918.91;4975896;28;20121;-80
2023/05/16 00:38:43;;;;;;;5.93;1.77;;;;;;;6.60;100.00;101906.66;4978138;28;20203;-79
2023/05/16 00:41:27;;;;;;;6.20;1.38;;;;;;;6.58;100.00;101911.94;4974331;28;20812;-79
2023/05/16 00:44:11;;;;;;;5.32;1.15;;;;;;;6.55;100.00;101906.72;4977807;28;20581;-79
2023/05/16 00:46:57;;;;;;;3.55;1.52;;;;;;;6.54;100.00;101914.63;4978483;28;20057;-79
2023/05/16 00:49:41;;;;;;;2.42;1.17;;;;;;;6.51;100.00;101905.91;4978084;28;20108;-80
2023/05/16 00:52:25;;;;;;;3.95;1.40;;;;;;;6.48;100.00;101912.94;4978229;28;20104;-79
2023/05/16 00:55:09;;;;;;;3.20;1.27;;;;;;;6.48;100.00;101910.31;4977341;28;20052;-79
2023/05/16 00:57:53;;;;;;;5.25;1.50;;;;;;;6.47;100.00;101914.69;4987738;28;20041;-79
2023/05/16 01:00:37;;;;;;;2.58;1.20;;;;;;;6.49;100.00;101914.69;4978096;28;20810;-79
2023/05/16 01:03:21;;;;;;;4.22;1.50;;;;;;;6.50;100.00;101913.78;4979488;28;20050;-80
2023/05/16 01:06:06;;;;;;;2.05;1.00;;;;;;;6.50;100.00;101913.78;4977761;28;20112;-79
2023/05/16 01:08:50;;;;;;;6.97;1.75;;;;;;;6.49;100.00;101919.94;4978311;28;20072;-80
2023/05/16 01:11:54;;;;;;;4.00;1.30;;;;;;;6.44;100.00;101909.47;4978866;28;20050;-80
2023/05/16 01:14:43;;;;;;;5.38;1.50;;;;;;;6.39;100.00;101909.50;4982602;28;20097;-79
2023/05/16 01:17:27;;;;;;;7.85;1.20;;;;;;;6.38;100.00;101910.41;4983383;28;20076;-80
2023/05/16 01:20:14;;;;;;;5.07;1.73;;;;;;;6.36;100.00;101914.81;4982892;28;20073;-80
2023/05/16 01:23:07;;;;;;;5.05;1.13;;;;;;;6.35;100.00;101913.06;4980594;28;20048;-79
2023/05/16 01:25:54;;;;;;;4.50;1.05;;;;;;;6.31;100.00;101913.97;4980230;28;20072;-80
2023/05/16 01:28:38;;;;;;;5.30;1.17;;;;;;;6.29;100.00;101907.00;4981044;28;20559;-80
2023/05/16 01:31:23;;;;;;;3.63;1.35;;;;;;;6.28;100.00;101908.78;4978635;28;20434;-80
2023/05/16 01:34:07;;;;;;;2.53;1.30;;;;;;;6.26;100.00;101907.91;4979866;28;20077;-80
2023/05/16 01:37:18;;;;;;;5.95;1.40;;;;;;;6.24;100.00;101907.94;4981422;28;20523;-80
2023/05/16 01:40:25;;;;;;;4.05;1.20;;;;;;;6.24;100.00;101909.69;4978592;28;20050;-80
2023/05/16 01:43:12;;;;;;;5.97;1.75;;;;;;;6.20;100.00;101908.84;4993818;28;20531;-80
2023/05/16 01:46:03;;;;;;;7.47;1.52;;;;;;;6.18;100.00;101912.38;4982372;28;20049;-80
2023/05/16 01:49:15;;;;;;;3.17;1.25;;;;;;;6.15;100.00;101913.25;4979982;28;20100;-80
2023/05/16 01:52:05;;;;;;;6.70;1.60;;;;;;;6.14;100.00;101913.31;4983217;28;20097;-79
2023/05/16 01:54:52;;;;;;;5.28;1.42;;;;;;;6.13;100.00;101920.31;4984227;28;20158;-79
2023/05/16 01:57:38;;;;;;;5.93;1.38;;;;;;;6.11;100.00;101917.69;4978983;28;20065;-79
2023/05/16 02:00:22;;;;;;;4.90;1.80;;;;;;;6.10;100.00;101913.31;4982094;28;20108;-80
2023/05/16 02:03:07;;;;;;;4.90;1.25;;;;;;;6.10;100.00;101921.19;4994952;28;20105;-80
2023/05/16 02:05:51;;;;;;;6.13;1.20;;;;;;;6.09;100.00;101908.94;4978241;28;20061;-80
2023/05/16 02:08:35;;;;;;;5.45;1.75;;;;;;;6.06;100.00;101914.22;4980495;28;21228;-79
2023/05/16 02:11:20;;;;;;;5.10;1.10;;;;;;;6.05;100.00;101912.47;4982415;28;20056;-79
2023/05/16 02:14:04;;;;;;;4.75;1.70;;;;;;;6.03;100.00;101911.63;4979748;28;20649;-81
2023/05/16 02:16:48;;;;;;;1.65;1.20;;;;;;;6.02;100.00;101912.53;4981483;28;20052;-78
2023/05/16 02:19:35;;;;;;;6.28;1.17;;;;;;;6.01;100.00;101910.75;4980691;28;20133;-79
2023/05/16 02:22:20;;;;;;;5.75;1.50;;;;;;;6.00;100.00;101910.75;4975978;28;20057;-79
2023/05/16 02:25:05;;;;;;;6.68;1.40;;;;;;;6.01;100.00;101913.38;4981536;28;20108;-79
2023/05/16 02:27:49;;;;;;;3.53;1.38;;;;;;;6.00;100.00;101916.91;4981366;28;20408;-79
2023/05/16 02:30:33;;;;;;;6.43;1.23;;;;;;;6.00;100.00;101918.66;4977282;28;20296;-79
2023/05/16 02:33:17;;;;;;;5.15;1.35;;;;;;;5.98;100.00;101916.03;4983150;28;20107;-79
2023/05/16 02:36:02;;;;;;;2.92;1.20;;;;;;;5.98;100.00;101916.03;4981425;28;20057;-79
2023/05/16 02:38:46;;;;;;;3.38;1.30;;;;;;;5.95;100.00;101918.69;4982378;28;20033;-79
2023/05/16 02:41:30;;;;;;;5.55;1.20;;;;;;;5.94;100.00;101924.84;4982357;28;20093;-79
2023/05/16 02:44:15;;;;;;;6.90;1.42;;;;;;;5.91;100.00;101919.59;4980774;28;20489;-79
2023/05/16 02:46:59;;;;;;;3.42;1.17;;;;;;;5.92;100.00;101924.84;4979579;28;20218;-79
2023/05/16 02:49:43;;;;;;;3.58;1.17;;;;;;;5.94;100.00;101919.59;4985794;28;20049;-78
2023/05/16 02:52:27;;;;;;;5.05;1.10;;;;;;;5.95;100.00;101929.19;4981174;28;20053;-78
2023/05/16 02:55:11;;;;;;;3.25;1.27;;;;;;;5.96;100.00;101933.56;4977936;28;20103;-79
2023/05/16 02:57:55;;;;;;;5.10;1.13;;;;;;;5.93;100.00;101929.22;4980861;28;20617;-79
2023/05/16 03:00:39;;;;;;;3.67;1.52;;;;;;;5.93;100.00;101930.94;4980160;28;20052;-79
2023/05/16 03:03:23;;;;;;;6.25;1.60;;;;;;;5.92;100.00;101939.72;4977084;28;20828;-79
2023/05/16 03:06:18;;;;;;;;;;;;;;;;;;;;;
2023/05/16 03:09:02;;;;;;;3.75;1.50;;;;;;;5.88;100.00;101927.50;4979033;28;20136;-80
2023/05/16 03:11:47;;;;;;;6.22;1.83;;;;;;;5.88;100.00;101931.00;4977929;28;20053;-79
2023/05/16 03:14:31;;;;;;;9.27;1.67;;;;;;;5.87;100.00;101934.50;4979509;28;20434;-79
2023/05/16 03:17:15;;;;;;;3.53;1.33;;;;;;;5.84;100.00;101935.41;4978522;28;20044;-79
2023/05/16 03:19:59;;;;;;;6.25;1.33;;;;;;;5.81;100.00;101940.72;4974567;28;20568;-80
2023/05/16 03:22:44;;;;;;;5.70;1.30;;;;;;;5.80;100.00;101941.59;4979807;28;20638;-80
2023/05/16 03:25:28;;;;;;;3.20;1.42;;;;;;;5.74;100.00;101936.38;4979957;28;20128;-80
2023/05/16 03:28:12;;;;;;;5.57;1.58;;;;;;;5.70;100.00;101939.91;4976974;28;20045;-79
2023/05/16 03:30:56;;;;;;;5.10;1.30;;;;;;;5.67;100.00;101932.91;4979687;28;20185;-79
2023/05/16 03:33:40;;;;;;;6.70;1.30;;;;;;;5.63;100.00;101935.56;4979397;28;20085;-79
2023/05/16 03:36:25;;;;;;;3.13;1.10;;;;;;;5.61;100.00;101938.22;4976229;28;21942;-80
2023/05/16 03:39:10;;;;;;;1.90;1.20;;;;;;;5.60;100.00;101936.47;4991485;28;20112;-79
2023/05/16 03:41:56;;;;;;;5.13;1.30;;;;;;;5.61;100.00;101937.34;4978842;28;20049;-80
2023/05/16 03:44:40;;;;;;;5.60;1.25;;;;;;;5.59;100.00;101934.72;4963128;28;20048;-79
2023/05/16 03:47:24;;;;;;;3.88;1.27;;;;;;;5.57;100.00;101937.34;4977949;28;20092;-79
2023/05/16 03:50:09;;;;;;;8.10;1.52;;;;;;;5.55;100.00;101944.38;4981773;28;20056;-79
2023/05/16 03:52:54;;;;;;;1.88;1.30;;;;;;;5.55;100.00;101938.25;4977335;28;20057;-80
2023/05/16 03:55:38;;;;;;;6.53;1.38;;;;;;;5.53;100.00;101946.16;4980176;28;20516;-80
2023/05/16 03:58:22;;;;;;;4.45;1.23;;;;;;;5.52;100.00;101948.78;4978409;28;20057;-80
2023/05/16 04:01:06;;;;;;;6.95;1.17;;;;;;;5.52;100.00;101954.94;4975454;28;20041;-79
2023/05/16 04:03:50;;;;;;;5.40;1.50;;;;;;;5.52;100.00;101949.69;4978007;28;20077;-80
2023/05/16 04:06:34;;;;;;;4.90;1.27;;;;;;;5.52;100.00;101952.31;4984055;28;20096;-80
2023/05/16 04:09:19;;;;;;;5.38;1.35;;;;;;;5.52;100.00;101954.03;4976494;28;20057;-80
2023/05/16 04:12:03;;;;;;;2.60;1.38;;;;;;;5.49;100.00;101948.81;4976561;28;20104;-80
2023/05/16 04:14:47;;;;;;;4.25;1.30;;;;;;;5.51;100.00;101952.31;4977053;28;20049;-79
2023/05/16 04:17:31;;;;;;;6.40;1.40;;;;;;;5.50;100.00;101956.69;4975291;28;20906;-80
2023/05/16 04:20:16;;;;;;;3.03;1.20;;;;;;;5.53;100.00;101964.56;4978878;28;20060;-79
2023/05/16 04:22:59;;;;;;;3.58;1.13;;;;;;;5.54;100.00;101947.91;4991434;28;20532;-79
2023/05/16 04:25:44;;;;;;;7.95;1.30;;;;;;;5.56;100.00;101961.03;4976831;28;20116;-80
2023/05/16 04:28:27;;;;;;;3.97;1.38;;;;;;;5.56;100.00;101959.25;4979875;28;20056;-79
2023/05/16 04:31:13;;;;;;;6.07;1.55;;;;;;;5.61;100.00;101961.00;4978883;28;20414;-79
2023/05/16 04:33:57;;;;;;;3.05;1.15;;;;;;;5.64;100.00;101966.22;4977579;28;20513;-79
2023/05/16 04:36:41;;;;;;;5.85;1.45;;;;;;;5.68;100.00;101960.06;4990356;28;20184;-79
2023/05/16 04:39:25;;;;;;;3.05;1.20;;;;;;;5.72;100.00;101959.16;4977954;28;20069;-79
2023/05/16 04:42:09;;;;;;;6.88;1.50;;;;;;;5.77;100.00;101970.50;4975766;28;20135;-79
2023/05/16 04:44:55;;;;;;;2.47;1.20;;;;;;;5.84;100.00;101971.34;4978222;28;20927;-79
2023/05/16 04:47:39;;;;;;;4.10;1.50;;;;;;;5.90;100.00;101965.16;4979900;28;20526;-80
2023/05/16 04:50:23;;;;;;;4.28;1.55;;;;;;;5.96;100.00;101973.00;4978802;28;20423;-79
2023/05/16 04:53:09;;;;;;;5.70;1.50;;;;;;;6.06;100.00;101971.22;4983341;28;20056;-79
2023/05/16 04:55:53;;;;;;;3.53;1.33;;;;;;;6.18;100.00;101975.47;4997850;28;20118;-79
2023/05/16 04:58:37;;;;;;;2.92;1.00;;;;;;;6.29;100.00;101976.25;4981247;28;20112;-79
2023/05/16 05:01:21;;;;;;;6.03;1.10;;;;;;;6.41;100.00;101971.75;4983509;28;20056;-79
2023/05/16 05:04:05;;;;;;;2.10;1.00;;;;;;;6.53;100.00;101982.16;4982414;28;20728;-78
2023/05/16 05:06:56;;;;;;;2.95;1.20;;;;;;;6.65;100.00;101979.41;4985469;28;20405;-79
2023/05/16 05:09:41;;;;;;;3.53;1.20;;;;;;;6.77;100.00;101988.06;4983067;28;20041;-79
2023/05/16 05:12:26;;;;;;;1.85;0.82;;;;;;;6.89;100.00;101987.94;4983101;28;20077;-78
2023/05/16 05:15:11;;;;;;;4.57;1.13;;;;;;;7.01;100.00;101992.16;4983893;28;20124;-79
2023/05/16 05:17:55;;;;;;;2.47;1.00;;;;;;;7.17;100.00;101994.59;4994465;28;20053;-79
2023/05/16 05:20:40;;;;;;;3.90;1.20;;;;;;;7.32;100.00;101988.28;4995488;28;20060;-79
2023/05/16 05:23:24;;;;;;;5.45;1.10;;;;;;;7.50;100.00;101992.41;4986179;28;20150;-78
2023/05/16 05:26:08;;;;;;;2.47;0.85;;;;;;;7.69;100.00;101997.44;4980158;28;20134;-79
2023/05/16 05:28:52;;;;;;;4.05;1.08;;;;;;;7.79;100.00;101993.75;4981138;28;20141;-78
2023/05/16 05:31:36;;;;;;;1.50;0.93;;;;;;;7.88;100.00;102001.53;4982089;28;20926;-79
2023/05/16 05:34:20;;;;;;;3.15;0.82;;;;;;;8.00;100.00;101997.81;4981568;28;20087;-78
2023/05/16 05:37:04;;;;;;;8.77;3.22;;;;;;;8.17;100.00;102001.94;4982996;28;20057;-78
2023/05/16 05:39:48;;;;;;;6.75;1.50;;;;;;;8.34;100.00;101998.16;4982730;28;20602;-78
2023/05/16 05:42:32;;;;;;;1.77;0.90;;;;;;;8.53;100.00;102007.50;4977973;28;20177;-76
2023/05/16 05:45:17;;;;;;;4.05;0.90;;;;;;;8.68;100.00;102008.97;4983412;28;20056;-77
2023/05/16 05:48:01;;;;;;;2.15;0.80;;;;;;;8.90;100.00;102010.34;4982982;28;20080;-78
2023/05/16 05:50:45;;;;;;;2.50;0.80;;;;;;;9.10;100.00;102013.44;4964979;28;20108;-78
2023/05/16 05:53:29;;;;;;;2.65;1.05;;;;;;;9.29;100.00;102015.72;4980809;28;20141;-78
2023/05/16 05:56:13;;;;;;;1.90;0.80;;;;;;;9.36;100.00;102011.16;4981180;28;20440;-78
2023/05/16 05:58:58;;;;;;;3.20;0.93;;;;;;;9.37;100.00;102026.09;4978923;28;20052;-78
2023/05/16 06:01:45;;;;;;;4.60;0.98;;;;;;;9.34;100.00;102016.50;4985960;28;20100;-82
2023/05/16 06:04:32;;;;;;;3.58;0.70;;;;;;;9.28;100.00;102019.28;4980776;28;20143;-79
2023/05/16 06:07:18;;;;;;;4.97;0.73;;;;;;;9.27;100.00;102017.53;4977763;28;20053;-79
2023/05/16 06:10:04;;;;;;;2.78;0.80;;;;;;;9.35;100.00;102018.22;4981757;28;20044;-78
2023/05/16 06:12:48;;;;;;;2.72;0.80;;;;;;;9.54;100.00;102022.25;4980281;28;20049;-78
2023/05/16 06:15:33;;;;;;;3.58;0.80;;;;;;;9.67;100.00;102020.19;4979017;28;20217;-78
2023/05/16 06:18:17;;;;;;;2.28;0.60;;;;;;;9.81;100.00;102028.66;4980207;28;20065;-77
2023/05/16 06:21:06;;;;;;;2.67;0.95;;;;;;;9.97;100.00;102030.97;4980019;28;20602;-80
2023/05/16 06:23:50;;;;;;;1.20;0.70;;;;;;;10.10;100.00;102028.88;4991754;28;20132;-78
2023/05/16 06:26:35;;;;;;;3.60;1.17;;;;;;;10.24;100.00;102040.00;4980401;28;20662;-77
2023/05/16 06:29:19;;;;;;;4.13;0.80;;;;;;;10.41;100.00;102031.63;4981649;28;20531;-77
2023/05/16 06:32:03;;;;;;;4.90;0.80;;;;;;;10.60;100.00;102031.19;4978319;28;20080;-76
2023/05/16 06:34:48;;;;;;;1.30;0.60;;;;;;;10.71;100.00;102031.78;4981259;28;20115;-77
2023/05/16 06:37:32;;;;;;;2.92;0.73;;;;;;;10.68;100.00;102042.44;4982826;28;20080;-77
2023/05/16 06:40:16;;;;;;;6.05;1.15;;;;;;;10.71;100.00;102039.72;4979292;28;20036;-77
2023/05/16 06:43:00;;;;;;;5.90;0.85;;;;;;;10.80;100.00;102051.84;4983755;28;20056;-78
2023/05/16 06:45:45;;;;;;;4.00;0.98;;;;;;;10.86;100.00;102030.47;4981104;28;20737;-80
2023/05/16 06:48:29;;;;;;;6.85;1.50;;;;;;;10.96;100.00;102044.31;4978724;28;20137;-77
2023/05/16 06:51:15;;;;;;;3.30;0.80;;;;;;;11.06;100.00;102044.09;4981423;28;20162;-78
2023/05/16 06:53:59;;;;;;;4.50;1.20;;;;;;;11.09;100.00;102038.69;4962991;28;20143;-78
2023/05/16 06:56:44;;;;;;;4.90;1.58;;;;;;;11.17;100.00;102049.91;4978113;28;20049;-78
2023/05/16 06:59:28;;;;;;;4.28;0.88;;;;;;;11.25;100.00;102053.25;4979974;28;20512;-78
2023/05/16 07:02:13;;;;;;;5.72;1.23;;;;;;;11.45;100.00;102053.56;4982594;28;20061;-90
2023/05/16 07:05:07;;;;;;;3.95;1.20;;;;;;;11.54;100.00;102050.63;4980797;28;20424;-85
2023/05/16 07:07:55;;;;;;;4.47;1.10;;;;;;;11.54;100.00;102054.16;4982933;28;20460;-84
2023/05/16 07:10:39;;;;;;;2.13;0.90;;;;;;;11.49;100.00;102056.06;4976873;28;20062;-85
2023/05/16 07:13:23;;;;;;;3.20;1.17;;;;;;;11.48;100.00;102054.34;4974662;28;20410;-80
2023/05/16 07:16:07;;;;;;;2.40;0.95;;;;;;;11.62;100.00;102053.06;4978636;28;20048;-80
2023/05/16 07:18:51;;;;;;;2.88;1.08;;;;;;;11.57;100.00;102047.91;4979347;28;20529;-80
2023/05/16 07:21:35;;;;;;;6.65;0.98;;;;;;;11.60;100.00;102052.25;4977632;28;20111;-80
2023/05/16 07:24:19;;;;;;;6.38;1.30;;;;;;;11.71;100.00;102060.72;4978719;28;20050;-80
2023/05/16 07:27:03;;;;;;;5.07;1.20;;;;;;;12.01;100.00;102067.78;4977549;28;20056;-80
2023/05/16 07:29:48;;;;;;;2.75;1.00;;;;;;;12.06;98.13;102076.50;4976414;28;20058;-81
2023/05/16 07:32:32;;;;;;;4.07;0.90;;;;;;;11.90;95.55;102070.75;4980105;28;20120;-84
2023/05/16 07:35:17;;;;;;;4.10;1.00;;;;;;;11.72;96.09;102064.25;4980535;28;20045;-85
2023/05/16 07:38:01;;;;;;;4.97;0.90;;;;;;;11.52;92.02;102087.81;4965546;28;20084;-85
2023/05/16 07:40:46;;;;;;;2.08;0.70;;;;;;;11.27;95.13;102085.88;4981684;28;20124;-87
2023/05/16 07:43:36;;;;;;;3.13;0.68;;;;;;;10.96;94.37;102084.06;4977326;28;20088;-85
2023/05/16 07:46:20;;;;;;;2.15;0.82;;;;;;;10.67;96.07;102083.06;4975289;28;20212;-85
2023/05/16 07:49:04;;;;;;;4.68;0.90;;;;;;;10.57;96.06;102085.09;4964038;28;20105;-84
2023/05/16 07:51:48;;;;;;;3.58;0.73;;;;;;;10.65;96.46;102074.31;4974617;28;20245;-81
2023/05/16 07:54:34;;;;;;;3.17;0.80;;;;;;;10.88;97.88;102083.41;4973425;28;20119;-81
2023/05/16 07:57:18;;;;;;;3.05;0.90;;;;;;;11.04;95.64;102083.88;4985644;28;20053;-82
2023/05/16 08:00:03;;;;;;;2.90;0.93;;;;;;;11.22;97.52;102077.19;4959210;28;20060;-80
2023/05/16 08:02:47;;;;;;;3.92;1.02;;;;;;;11.51;96.36;102077.25;4963068;28;20064;-85
2023/05/16 08:05:31;;;;;;;2.38;0.98;;;;;;;11.70;96.39;102082.84;4968448;28;20136;-82
2023/05/16 08:08:15;;;;;;;5.82;1.25;;;;;;;11.83;95.16;102083.38;4975959;28;20760;-82
2023/05/16 08:10:59;;;;;;;4.38;0.88;;;;;;;11.91;96.40;102080.47;4975204;28;20155;-82
2023/05/16 08:13:43;;;;;;;4.00;0.93;;;;;;;12.06;93.66;102080.03;4976834;28;20052;-83
2023/05/16 08:16:35;;;;;;;2.63;0.70;;;;;;;12.23;93.63;102073.28;4976289;28;20104;-81
2023/05/16 08:19:20;;;;;;;1.95;0.70;;;;;;;12.43;94.10;102079.72;4974753;28;20120;-80
2023/05/16 08:22:06;;;;;;;5.05;0.90;;;;;;;12.66;92.19;102075.41;4976767;28;20057;-81
2023/05/16 08:24:50;;;;;;;2.42;0.80;;;;;;;12.86;91.86;102069.41;4989226;28;20440;-81
2023/05/16 08:27:35;;;;;;;3.33;0.82;;;;;;;13.12;92.25;102062.25;4972262;28;20052;-81
2023/05/16 08:30:19;;;;;;;3.42;0.95;;;;;;;13.07;89.37;102081.03;4973164;28;20523;-79
2023/05/16 08:33:05;;;;;;;2.80;0.90;;;;;;;12.83;89.82;102083.66;4975391;28;20057;-80
2023/05/16 08:35:51;;;;;;;1.70;0.98;;;;;;;12.52;90.63;102092.69;4985170;28;20099;-80
2023/05/16 08:38:35;;;;;;;3.65;0.82;;;;;;;12.28;89.50;102091.72;4980655;28;20053;-86
2023/05/16 08:41:20;;;;;;;2.60;0.60;;;;;;;12.27;91.11;102088.22;4976738;28;20060;-78
2023/05/16 08:44:05;;;;;;;0.88;0.73;;;;;;;12.44;94.56;102084.13;4959306;28;20125;-78
2023/05/16 08:46:51;;;;;;;3.65;0.95;;;;;;;12.34;91.17;102100.38;4976747;28;20045;-80
2023/05/16 08:49:36;;;;;;;2.03;0.73;;;;;;;12.21;91.88;102099.88;4970420;28;20053;-78
2023/05/16 08:52:20;;;;;;;1.63;0.80;;;;;;;12.21;89.57;102089.25;4973742;28;20048;-81
2023/05/16 08:55:06;;;;;;;5.55;0.85;;;;;;;12.14;90.86;102102.81;4969180;28;20644;-77
2023/05/16 08:57:51;;;;;;;4.38;0.90;;;;;;;11.93;91.26;102091.91;4985082;28;20131;-78
2023/05/16 09:00:35;;;;;;;1.33;0.65;;;;;;;12.05;94.04;102096.84;4974349;28;20108;-82
2023/05/16 09:03:20;;;;;;;3.55;0.70;;;;;;;12.28;92.32;102099.69;4976952;28;20188;-77
2023/05/16 09:06:06;;;;;;;1.80;0.82;;;;;;;12.33;89.43;102087.97;4970458;28;20044;-80
2023/05/16 09:08:53;;;;;;;3.55;0.95;;;;;;;12.57;85.83;102085.44;4968473;28;20113;-80
2023/05/16 09:11:38;;;;;;;4.97;1.02;;;;;;;12.79;92.21;102081.19;4974083;28;20085;-79
2023/05/16 09:14:22;;;;;;;4.50;0.73;;;;;;;12.86;92.52;102091.53;4969365;28;20048;-79
2023/05/16 09:17:08;;;;;;;2.95;0.95;;;;;;;12.99;91.64;102091.97;4973600;28;20225;-80
2023/05/16 09:19:56;;;;;;;2.42;0.82;;;;;;;13.02;89.35;102091.84;4973906;28;20053;-78
2023/05/16 09:22:51;;;;;;;3.00;0.80;;;;;;;12.92;88.85;102089.56;4969311;28;20053;-80
2023/05/16 09:25:36;;;;;;;3.42;1.20;;;;;;;12.84;90.07;102105.78;4973685;28;20136;-79
2023/05/16 09:28:21;;;;;;;3.97;0.88;;;;;;;12.69;90.57;102105.41;4971660;28;20061;-78
2023/05/16 09:31:36;;;;;;;3.97;0.82;;;;;;;12.30;86.89;102096.06;4968151;28;20645;-82
2023/05/16 09:34:21;;;;;;;5.22;1.20;;;;;;;12.32;90.34;102107.50;4965730;28;20060;-83
2023/05/16 09:37:05;;;;;;;2.08;0.60;;;;;;;12.41;90.21;102100.16;4974241;28;20040;-87
2023/05/16 09:39:53;;;;;;;4.72;0.82;;;;;;;12.62;85.36;102104.75;4975891;28;20104;-88
2023/05/16 09:42:38;;;;;;;1.98;0.65;;;;;;;12.72;88.51;102109.75;4979578;28;20127;-86
2023/05/16 09:45:22;;;;;;;5.13;1.13;;;;;;;12.55;84.41;102099.69;4962657;28;20049;-88
2023/05/16 09:48:08;;;;;;;3.75;1.05;;;;;;;12.40;84.92;102099.28;4959298;28;20111;-87
2023/05/16 09:50:52;;;;;;;4.35;0.77;;;;;;;12.35;86.47;102111.84;4979873;28;20053;-84
2023/05/16 09:53:37;;;;;;;1.23;0.60;;;;;;;12.65;87.72;102101.13;4969944;28;20583;-89
2023/05/16 09:56:21;;;;;;;2.25;0.77;;;;;;;12.83;87.39;102099.63;4965198;28;20136;-83
2023/05/16 09:59:10;;;;;;;3.90;1.05;;;;;;;12.82;85.67;102105.84;4977635;28;20581;-82
2023/05/16 10:01:57;;;;;;;4.35;0.75;;;;;;;12.65;84.14;102117.06;4968662;28;20460;-84
2023/05/16 10:04:41;;;;;;;3.38;0.70;;;;;;;12.58;81.59;102104.91;4975853;28;20162;-85
2023/05/16 10:07:31;;;;;;;5.35;1.05;;;;;;;12.57;83.06;102112.00;4975314;28;20053;-84
2023/05/16 10:10:19;;;;;;;3.58;1.08;;;;;;;12.51;81.19;102120.19;4974794;28;20579;-87
2023/05/16 10:13:04;;;;;;;2.22;0.63;;;;;;;12.47;82.66;102115.88;4972915;28;20065;-84
2023/05/16 10:15:49;;;;;;;3.15;0.85;;;;;;;12.42;83.17;102115.19;4971092;28;20081;-86
2023/05/16 10:18:34;;;;;;;2.50;0.70;;;;;;;12.60;84.79;102117.19;4965808;28;20195;-85
2023/05/16 10:21:24;;;;;;;3.10;0.65;;;;;;;12.84;81.55;102119.94;4976351;28;20045;-84
2023/05/16 10:24:10;;;;;;;2.55;0.75;;;;;;;12.84;80.39;102111.97;4964292;28;20138;-84
2023/05/16 10:26:54;;;;;;;3.72;0.70;;;;;;;12.79;80.17;102108.59;4977750;28;21950;-87
2023/05/16 10:29:40;;;;;;;3.90;1.13;;;;;;;12.68;83.16;102113.44;4926876;28;1161860;-85
2023/05/16 10:32:25;;;;;;;3.92;0.90;;;;;;;12.62;85.11;102119.81;4963608;28;20088;-82
2023/05/16 10:35:09;;;;;;;3.60;0.85;;;;;;;12.35;86.47;102133.09;4974075;28;20659;-81
2023/05/16 10:37:55;;;;;;;5.78;0.82;;;;;;;11.99;91.36;102122.69;4973424;28;20048;-79
2023/05/16 10:40:39;;;;;;;0.60;0.60;;;;;;;11.61;95.87;102114.97;4976608;28;20109;-79
2023/05/16 10:43:25;;;;;;;5.30;0.82;;;;;;;11.54;98.81;102127.53;4977428;28;20329;-80
2023/05/16 10:46:10;;;;;;;3.53;0.90;;;;;;;11.38;97.61;102125.34;4987330;28;20079;-80
2023/05/16 10:48:54;;;;;;;3.08;1.15;;;;;;;11.23;97.33;102121.31;4969225;28;20045;-83
2023/05/16 10:51:38;;;;;;;3.85;1.02;;;;;;;11.18;99.60;102132.97;4976379;28;20053;-79
2023/05/16 10:54:41;;;;;;;1.95;0.80;;;;;;;11.15;100.00;102120.69;4975030;28;21372;-85
2023/05/16 10:57:26;;;;;;;2.40;0.73;;;;;;;11.20;99.92;102126.72;4960635;28;20049;-79
2023/05/16 11:00:21;;;;;;;2.53;0.88;;;;;;;11.29;98.11;102136.22;4972555;28;20037;-80
2023/05/16 11:03:05;;;;;;;2.15;0.70;;;;;;;11.33;96.25;102137.00;4967681;28;20058;-81
2023/05/16 11:05:54;;;;;;;4.75;0.90;;;;;;;11.36;96.43;102126.28;4972434;28;20037;-82
2023/05/16 11:09:18;;;;;;;1.67;0.80;;;;;;;11.40;94.88;102120.00;4974016;28;20057;-84
2023/05/16 11:12:02;;;;;;;1.65;1.20;;;;;;;11.45;94.51;102134.00;4972854;28;20425;-83
2023/05/16 11:14:51;;;;;;;1.80;1.00;;;;;;;11.42;92.23;102147.31;4989322;28;20433;-79
2023/05/16 11:17:39;;;;;;;3.22;1.40;;;;;;;11.39;94.01;102134.16;4960992;28;20117;-80
2023/05/16 11:20:31;;;;;;;1.90;1.00;;;;;;;11.56;96.31;102123.06;4971240;28;20108;-84
2023/05/16 11:23:15;;;;;;;2.45;0.90;;;;;;;11.75;95.46;102131.34;4974940;28;20099;-84
2023/05/16 11:26:00;;;;;;;2.38;0.77;;;;;;;11.91;94.43;102117.63;4975155;28;20061;-82
2023/05/16 11:28:48;;;;;;;2.90;1.20;;;;;;;12.03;89.27;102133.19;4972329;28;20511;-80
2023/05/16 11:31:33;;;;;;;1.98;1.10;;;;;;;12.07;90.96;102126.88;4976513;28;20061;-83
2023/05/16 11:34:21;;;;;;;2.03;1.30;;;;;;;12.15;89.29;102139.91;4972497;28;20096;-85
2023/05/16 11:37:05;;;;;;;3.25;1.05;;;;;;;12.31;90.74;102132.31;4973703;28;20101;-82
2023/05/16 11:39:50;;;;;;;3.90;1.30;;;;;;;12.52;88.54;102137.84;4972193;28;20099;-84
2023/05/16 11:42:45;;;;;;;3.30;0.90;;;;;;;12.58;88.99;102124.34;4971433;28;20088;-85
2023/05/16 11:45:30;;;;;;;4.22;1.48;;;;;;;12.68;87.24;102129.38;4976376;28;20077;-86
2023/05/16 11:48:14;;;;;;;3.40;1.05;;;;;;;12.67;88.23;102127.63;4977488;28;20788;-86
2023/05/16 11:50:58;;;;;;;3.65;1.42;;;;;;;12.62;85.29;102130.44;4960312;28;20075;-80
2023/05/16 11:53:42;;;;;;;3.72;1.20;;;;;;;12.66;83.79;102123.22;4975155;28;20480;-85
2023/05/16 11:56:26;;;;;;;3.45;1.38;;;;;;;12.70;84.79;102138.16;4975409;28;20044;-86
2023/05/16 11:59:12;;;;;;;2.30;1.10;;;;;;;12.68;84.74;102126.72;4974291;28;20567;-85
2023/05/16 12:01:56;;;;;;;1.90;1.40;;;;;;;12.60;83.36;102138.44;4976241;28;21633;-86
2023/05/16 12:04:49;;;;;;;1.42;1.05;;;;;;;12.69;84.18;102144.41;4972136;28;20100;-88
2023/05/16 12:07:33;;;;;;;4.55;1.23;;;;;;;12.72;84.96;102125.69;4975396;28;20052;-88
2023/05/16 12:10:17;;;;;;;1.67;1.30;;;;;;;12.79;85.07;102127.22;4961406;28;20064;-84
2023/05/16 12:13:02;;;;;;;2.85;1.52;;;;;;;12.86;77.73;102133.19;4969516;28;20095;-87
2023/05/16 12:15:47;;;;;;;2.03;1.13;;;;;;;12.90;80.53;102134.81;4957507;28;20943;-90
2023/05/16 12:18:31;;;;;;;3.70;1.85;;;;;;;12.98;80.42;102137.22;4962497;28;20053;-82
2023/05/16 12:21:16;;;;;;;5.97;1.80;;;;;;;13.03;77.42;102137.91;4975127;28;20065;-90
2023/05/16 12:24:00;;;;;;;3.22;1.52;;;;;;;13.03;70.73;102135.25;4961400;28;20053;-89
2023/05/16 12:26:45;;;;;;;3.85;1.70;;;;;;;13.06;76.91;102136.94;4964724;28;20196;-89
2023/05/16 12:29:30;;;;;;;6.72;2.35;;;;;;;13.04;76.38;102147.63;4975443;28;20145;-88
2023/05/16 12:32:18;;;;;;;2.63;1.65;;;;;;;13.13;75.15;102151.75;4987889;28;21586;-87
2023/05/16 12:35:03;;;;;;;3.05;1.40;;;;;;;13.17;76.67;102145.38;4975512;28;20064;-85
2023/05/16 12:37:49;;;;;;;4.05;1.50;;;;;;;13.23;79.80;102149.63;4975940;28;20169;-84
2023/05/16 12:40:36;;;;;;;2.92;1.23;;;;;;;13.29;76.31;102152.94;4972655;28;20045;-87
2023/05/16 12:43:21;;;;;;;4.70;1.30;;;;;;;13.39;78.20;102161.44;4975032;28;20133;-87
2023/05/16 12:46:18;;;;;;;3.45;1.02;;;;;;;13.45;76.87;102157.69;4977048;28;20053;-85
2023/05/16 12:49:07;;;;;;;3.38;1.10;;;;;;;13.43;79.00;102155.09;4987544;28;20045;-88
2023/05/16 12:51:53;;;;;;;6.90;1.25;;;;;;;13.53;78.37;102168.09;4963504;28;20100;-82